Time;durP1;ratioP1;P1;durP2;ratioP2;P2;SDS_P1;SDS_P2;PMS_P1;PMS_P2;Temp;Humidity;BMP_temperature;BMP_pressure;BME280_temperature;BME280_humidity;BME280_pressure;Samples;Min_cycle;Max_cycle;Signal;HPM_P1;HPM_P2
2021/01/28 00:01:56;;;;;;;4.18;3.67;;;1.30;99.90;;;;;;4847580;29;20418;-80
2021/01/28 00:04:22;;;;;;;4.07;3.65;;;1.30;99.90;;;;;;4849015;29;20449;-81
2021/01/28 00:06:48;;;;;;;5.13;3.77;;;1.30;99.90;;;;;;4845164;29;20400;-79
2021/01/28 00:09:13;;;;;;;3.72;3.42;;;1.30;99.90;;;;;;4846105;29;20469;-80
2021/01/28 00:11:39;;;;;;;3.90;3.60;;;1.30;99.90;;;;;;4846023;29;20439;-78
2021/01/28 00:14:05;;;;;;;3.83;3.53;;;1.30;99.90;;;;;;4847319;29;20447;-80
2021/01/28 00:16:31;;;;;;;4.57;3.55;;;1.30;99.90;;;;;;4848260;29;20443;-78
2021/01/28 00:18:56;;;;;;;4.88;3.78;;;1.30;99.90;;;;;;4847272;29;20402;-80
2021/01/28 00:21:22;;;;;;;4.00;3.70;;;1.30;99.90;;;;;;4855039;29;20446;-79
2021/01/28 00:23:48;;;;;;;4.40;4.00;;;1.30;99.90;;;;;;4841891;29;20445;-78
2021/01/28 00:26:14;;;;;;;3.88;3.45;;;1.40;99.90;;;;;;4841498;29;20792;-82
2021/01/28 00:28:40;;;;;;;3.75;3.45;;;1.40;99.90;;;;;;4846638;29;20474;-79
2021/01/28 00:31:05;;;;;;;4.43;4.03;;;1.40;99.90;;;;;;4861968;29;20494;-82
2021/01/28 00:33:31;;;;;;;4.73;4.27;;;1.40;99.90;;;;;;4860547;29;20410;-83
2021/01/28 00:35:57;;;;;;;3.83;3.53;;;1.40;99.90;;;;;;4861832;29;20429;-80
2021/01/28 00:38:28;;;;;;;4.40;3.83;;;1.30;99.90;;;;;;4845457;29;20409;-79
2021/01/28 00:40:54;;;;;;;4.63;4.00;;;1.40;99.90;;;;;;4866033;29;20417;-83
2021/01/28 00:43:19;;;;;;;5.32;3.92;;;1.40;99.90;;;;;;4842807;29;20426;-79
2021/01/28 00:45:45;;;;;;;4.27;3.87;;;1.40;99.90;;;;;;4846848;29;20418;-78
2021/01/28 00:48:12;;;;;;;4.53;4.13;;;1.30;99.90;;;;;;4852338;29;20443;-79
2021/01/28 00:50:38;;;;;;;4.60;4.17;;;1.30;99.90;;;;;;4852948;29;20442;-77
2021/01/28 00:53:05;;;;;;;6.57;4.25;;;1.30;99.90;;;;;;4854324;29;20414;-80
2021/01/28 00:55:30;;;;;;;4.47;4.07;;;1.30;99.90;;;;;;4847897;29;20443;-84
2021/01/28 00:58:04;;;;;;;4.55;4.07;;;1.40;99.90;;;;;;4860393;29;20428;-81
2021/01/28 01:00:41;;;;;;;4.50;4.10;;;1.20;99.90;;;;;;4854148;29;20558;-78
2021/01/28 01:03:12;;;;;;;6.90;4.07;;;1.20;99.90;;;;;;4842089;29;20498;-85
2021/01/28 01:05:38;;;;;;;4.00;3.65;;;1.20;99.90;;;;;;4844270;29;20831;-80
2021/01/28 01:08:05;;;;;;;4.70;4.20;;;1.20;99.90;;;;;;4844850;29;20428;-79
2021/01/28 01:10:39;;;;;;;4.55;4.00;;;1.20;99.90;;;;;;4849728;29;20491;-85
2021/01/28 01:13:06;;;;;;;4.88;4.38;;;1.20;99.90;;;;;;4864281;29;20923;-81
2021/01/28 01:15:32;;;;;;;4.75;4.32;;;1.20;99.90;;;;;;4847706;29;20474;-84
2021/01/28 01:17:58;;;;;;;4.47;3.90;;;1.20;99.90;;;;;;4861572;29;20419;-82
2021/01/28 01:20:29;;;;;;;6.57;4.40;;;1.20;99.90;;;;;;4856590;29;20410;-80
2021/01/28 01:22:55;;;;;;;5.03;4.47;;;1.20;99.90;;;;;;4846843;29;20445;-81
2021/01/28 01:25:22;;;;;;;4.17;3.73;;;1.20;99.90;;;;;;4850225;29;20434;-82
2021/01/28 01:27:48;;;;;;;5.10;4.60;;;1.20;99.90;;;;;;4851869;29;20406;-81
2021/01/28 01:30:42;;;;;;;4.78;4.38;;;1.20;99.90;;;;;;4864949;29;20412;-84
2021/01/28 01:33:08;;;;;;;4.75;4.32;;;1.30;99.90;;;;;;4850916;29;20414;-79
2021/01/28 01:35:39;;;;;;;5.63;4.68;;;1.20;99.90;;;;;;4853181;29;20482;-79
2021/01/28 01:38:08;;;;;;;4.93;4.43;;;1.30;99.90;;;;;;4839872;29;20412;-81
2021/01/28 01:40:49;;;;;;;4.83;4.43;;;1.20;99.90;;;;;;4831614;29;20422;-80
2021/01/28 01:43:15;;;;;;;5.55;4.75;;;1.30;99.90;;;;;;4845569;29;20496;-80
2021/01/28 01:45:42;;;;;;;4.77;4.37;;;1.30;99.90;;;;;;4855586;29;20993;-77
2021/01/28 01:48:19;;;;;;;5.03;4.53;;;1.30;99.90;;;;;;4872043;29;20410;-80
2021/01/28 01:51:14;;;;;;;5.47;4.50;;;1.30;99.90;;;;;;4841519;29;20429;-77
2021/01/28 01:53:47;;;;;;;6.65;4.78;;;1.30;99.90;;;;;;4841911;29;20406;-78
2021/01/28 01:56:21;;;;;;;4.85;4.45;;;1.30;99.90;;;;;;4837999;29;20427;-79
2021/01/28 01:59:05;;;;;;;4.88;4.47;;;1.30;99.90;;;;;;4831423;29;20916;-78
2021/01/28 02:01:56;;;;;;;5.03;4.53;;;1.40;99.90;;;;;;4862845;29;20410;-78
2021/01/28 02:04:40;;;;;;;4.90;4.43;;;1.30;99.90;;;;;;4846032;29;20829;-79
2021/01/28 02:07:44;;;;;;;5.00;4.57;;;1.30;99.90;;;;;;4858979;29;20478;-79
2021/01/28 02:10:48;;;;;;;5.00;4.50;;;1.40;99.90;;;;;;4813680;29;20431;-79
2021/01/28 02:13:32;;;;;;;5.03;4.53;;;1.40;99.90;;;;;;4799465;29;20408;-84
2021/01/28 02:16:09;;;;;;;6.30;4.50;;;1.40;99.90;;;;;;4815666;29;20415;-81
2021/01/28 02:18:44;;;;;;;6.00;4.85;;;1.50;99.90;;;;;;4850380;29;20425;-81
2021/01/28 02:21:24;;;;;;;5.68;4.35;;;1.50;99.90;;;;;;4846295;29;20421;-77
2021/01/28 02:24:22;;;;;;;4.97;4.53;;;1.50;99.90;;;;;;4836510;29;20436;-80
2021/01/28 02:26:48;;;;;;;5.18;4.68;;;1.50;99.90;;;;;;4860175;29;20493;-79
2021/01/28 02:29:32;;;;;;;5.60;5.10;;;1.50;99.90;;;;;;4846522;29;20938;-78
2021/01/28 02:32:00;;;;;;;5.43;4.93;;;1.50;99.90;;;;;;4844735;29;20788;-79
2021/01/28 02:34:27;;;;;;;6.00;5.27;;;1.60;99.90;;;;;;4841272;29;20409;-78
2021/01/28 02:37:00;;;;;;;6.13;5.53;;;1.70;99.90;;;;;;4844131;29;20458;-78
2021/01/28 02:39:45;;;;;;;5.70;5.20;;;1.60;99.90;;;;;;4842693;29;20461;-83
2021/01/28 02:42:29;;;;;;;5.45;4.82;;;1.60;99.90;;;;;;4859823;29;20835;-82
2021/01/28 02:45:06;;;;;;;5.70;5.20;;;1.60;99.90;;;;;;4851544;29;20438;-82
2021/01/28 02:47:52;;;;;;;5.25;4.70;;;1.60;99.90;;;;;;4858070;29;20430;-80
2021/01/28 02:50:33;;;;;;;5.32;4.82;;;1.60;99.90;;;;;;4847524;29;20413;-81
2021/01/28 02:53:01;;;;;;;6.20;5.23;;;1.50;99.90;;;;;;4828741;29;20432;-81
2021/01/28 02:55:28;;;;;;;5.57;5.07;;;1.50;99.90;;;;;;4857603;29;21143;-81
2021/01/28 02:57:54;;;;;;;5.55;4.95;;;1.50;99.90;;;;;;4862829;29;20430;-80
2021/01/28 03:00:26;;;;;;;4.80;4.40;;;1.50;99.90;;;;;;4875925;29;20436;-83
2021/01/28 03:02:52;;;;;;;5.65;5.10;;;1.50;99.90;;;;;;4840490;29;20446;-86
2021/01/28 03:05:28;;;;;;;5.63;5.03;;;1.50;99.90;;;;;;4851471;29;20407;-81
2021/01/28 03:07:54;;;;;;;4.93;4.45;;;1.50;99.90;;;;;;4848939;29;20416;-79
2021/01/28 03:10:21;;;;;;;5.68;5.18;;;1.50;99.90;;;;;;4859051;29;20920;-81
2021/01/28 03:13:00;;;;;;;4.63;4.22;;;1.50;99.90;;;;;;4846478;29;20418;-81
2021/01/28 03:15:40;;;;;;;5.55;5.05;;;1.50;99.90;;;;;;4849956;29;20563;-78
2021/01/28 03:18:06;;;;;;;5.37;4.87;;;1.50;99.90;;;;;;4848025;29;20436;-78
2021/01/28 03:20:32;;;;;;;5.15;4.65;;;1.60;99.90;;;;;;4847284;29;20412;-79
2021/01/28 03:22:58;;;;;;;5.15;4.65;;;1.60;99.90;;;;;;4841133;29;20435;-84
2021/01/28 03:25:48;;;;;;;4.90;4.50;;;1.60;99.90;;;;;;4853468;29;20450;-87
2021/01/28 03:28:15;;;;;;;5.60;4.88;;;1.70;99.90;;;;;;4854543;29;20426;-86
2021/01/28 03:30:45;;;;;;;5.60;5.10;;;1.70;99.90;;;;;;4842548;29;20830;-84
2021/01/28 03:33:16;;;;;;;4.87;4.40;;;1.70;99.90;;;;;;4871337;29;20408;-80
2021/01/28 03:35:43;;;;;;;4.93;4.50;;;1.70;99.90;;;;;;4840058;29;20513;-82
2021/01/28 03:38:12;;;;;;;5.57;5.03;;;1.70;99.90;;;;;;4854225;29;20438;-84
2021/01/28 03:40:39;;;;;;;4.57;4.18;;;1.70;99.90;;;;;;4840334;29;20919;-80
2021/01/28 03:43:06;;;;;;;4.72;4.32;;;1.70;99.90;;;;;;4855904;29;20830;-84
2021/01/28 03:45:32;;;;;;;5.22;4.78;;;1.80;99.90;;;;;;4838064;29;20436;-80
2021/01/28 03:47:58;;;;;;;4.53;4.13;;;1.70;99.90;;;;;;4854071;29;20431;-82
2021/01/28 03:50:44;;;;;;;4.57;4.18;;;1.80;99.90;;;;;;4840750;29;20407;-82
2021/01/28 03:53:22;;;;;;;5.00;4.47;;;1.80;99.90;;;;;;4853518;29;20416;-81
2021/01/28 03:56:05;;;;;;;4.78;4.35;;;1.80;99.90;;;;;;4852853;29;20488;-83
2021/01/28 03:58:33;;;;;;;4.88;4.38;;;1.80;99.90;;;;;;4854887;29;20784;-85
2021/01/28 04:01:24;;;;;;;5.15;4.65;;;1.80;99.90;;;;;;4864819;29;20415;-82
2021/01/28 04:03:54;;;;;;;4.30;3.90;;;1.80;99.90;;;;;;4854549;29;21149;-83
2021/01/28 04:06:41;;;;;;;7.20;5.63;;;1.80;99.90;;;;;;4834842;29;20905;-84
2021/01/28 04:09:11;;;;;;;6.38;5.72;;;1.90;99.90;;;;;;4801950;29;20424;-80
2021/01/28 04:11:53;;;;;;;4.90;4.50;;;2.00;99.90;;;;;;4846100;29;20404;-81
2021/01/28 04:14:38;;;;;;;4.88;4.47;;;2.00;99.90;;;;;;4857664;29;20410;-84
2021/01/28 04:17:04;;;;;;;4.90;4.40;;;1.90;99.90;;;;;;4841212;29;20408;-80
2021/01/28 04:19:30;;;;;;;6.35;4.55;;;1.90;99.90;;;;;;4856706;29;20424;-82
2021/01/28 04:21:57;;;;;;;4.45;4.00;;;1.90;99.90;;;;;;4842241;29;21259;-81
2021/01/28 04:24:23;;;;;;;4.80;4.40;;;1.90;99.90;;;;;;4857235;29;20477;-80
2021/01/28 04:26:53;;;;;;;4.78;4.30;;;1.90;99.90;;;;;;4843229;29;20406;-83
2021/01/28 04:29:30;;;;;;;4.50;4.10;;;1.90;99.90;;;;;;4840080;29;20936;-79
2021/01/28 04:32:04;;;;;;;4.68;4.25;;;1.90;99.90;;;;;;4836942;29;20412;-81
2021/01/28 04:34:49;;;;;;;4.72;4.32;;;2.00;99.90;;;;;;4830867;29;20410;-82
2021/01/28 04:37:19;;;;;;;4.53;4.07;;;2.00;99.90;;;;;;4842688;29;20471;-81
2021/01/28 04:39:59;;;;;;;4.40;4.00;;;2.00;99.90;;;;;;4842789;29;20419;-82
2021/01/28 04:42:45;;;;;;;5.07;4.57;;;2.00;99.90;;;;;;4827390;29;20416;-87
2021/01/28 04:45:16;;;;;;;5.07;4.57;;;2.00;99.90;;;;;;4828630;29;20414;-82
2021/01/28 04:48:04;;;;;;;4.88;4.45;;;2.10;99.90;;;;;;4854572;29;20404;-85
2021/01/28 04:50:48;;;;;;;4.80;4.40;;;2.10;99.90;;;;;;4866681;29;20442;-79
2021/01/28 04:53:25;;;;;;;5.07;4.57;;;2.10;99.90;;;;;;4842525;29;20836;-81
2021/01/28 04:56:14;;;;;;;5.72;5.20;;;2.10;99.90;;;;;;4856699;29;20474;-87
2021/01/28 04:59:07;;;;;;;4.88;4.47;;;2.10;99.90;;;;;;4828192;29;20398;-82
2021/01/28 05:01:33;;;;;;;4.57;4.18;;;2.10;99.90;;;;;;4854211;29;20843;-82
2021/01/28 05:04:39;;;;;;;4.93;4.53;;;2.10;99.90;;;;;;4862154;29;20424;-80
2021/01/28 05:07:30;;;;;;;6.22;5.60;;;2.10;99.90;;;;;;4848440;29;20416;-80
2021/01/28 05:10:36;;;;;;;5.57;4.97;;;2.10;99.90;;;;;;4855996;29;20415;-79
2021/01/28 05:13:24;;;;;;;6.67;5.43;;;2.10;99.90;;;;;;4856988;29;20943;-83
2021/01/28 05:16:31;;;;;;;9.32;7.28;;;2.10;99.90;;;;;;4855226;29;20406;-80
2021/01/28 05:19:43;;;;;;;5.90;5.37;;;2.20;99.90;;;;;;4862032;29;20412;-83
2021/01/28 05:22:36;;;;;;;5.72;4.85;;;2.10;99.90;;;;;;4842950;29;20413;-81
2021/01/28 05:25:32;;;;;;;5.10;4.60;;;2.20;99.90;;;;;;4855741;29;20425;-79
2021/01/28 05:28:37;;;;;;;5.28;4.75;;;2.10;99.90;;;;;;4850224;29;20486;-88
2021/01/28 05:31:29;;;;;;;5.03;4.50;;;2.10;99.90;;;;;;4855830;29;20409;-83
2021/01/28 05:34:34;;;;;;;4.78;4.38;;;2.10;99.90;;;;;;4814709;29;20461;-83
2021/01/28 05:37:27;;;;;;;5.32;4.82;;;2.20;99.90;;;;;;4808288;29;20555;-77
2021/01/28 05:40:13;;;;;;;5.03;4.57;;;2.20;99.90;;;;;;4813954;29;20524;-79
2021/01/28 05:42:44;;;;;;;4.93;4.43;;;2.20;99.90;;;;;;4850700;29;20915;-79
2021/01/28 05:45:22;;;;;;;4.57;4.18;;;2.20;99.90;;;;;;4853080;29;20800;-80
2021/01/28 05:48:24;;;;;;;4.93;4.43;;;2.20;99.90;;;;;;4851857;29;20413;-83
2021/01/28 05:51:17;;;;;;;5.80;4.68;;;2.30;99.90;;;;;;4829034;29;20463;-81
2021/01/28 05:54:03;;;;;;;5.83;4.57;;;2.20;99.90;;;;;;4831392;29;20413;-78
2021/01/28 05:56:55;;;;;;;5.03;4.53;;;2.20;99.90;;;;;;4826218;29;20410;-79
2021/01/28 05:59:58;;;;;;;5.17;4.70;;;2.30;99.90;;;;;;4841480;29;20470;-81
2021/01/28 06:02:48;;;;;;;4.55;4.15;;;2.30;99.90;;;;;;4838883;29;20407;-79
2021/01/28 06:06:16;;;;;;;5.10;4.70;;;2.30;99.90;;;;;;4866553;29;20502;-78
2021/01/28 06:09:23;;;;;;;5.32;4.82;;;2.30;99.90;;;;;;4822400;29;20494;-77
2021/01/28 06:12:22;;;;;;;4.90;4.50;;;2.30;99.90;;;;;;4870071;29;20922;-80
2021/01/28 06:15:25;;;;;;;5.35;4.85;;;2.30;99.90;;;;;;4850798;29;20402;-78
2021/01/28 06:18:24;;;;;;;4.93;4.38;;;2.30;99.90;;;;;;4855123;29;20426;-77
2021/01/28 06:21:20;;;;;;;4.82;4.43;;;2.30;99.90;;;;;;4860075;29;20499;-81
2021/01/28 06:24:21;;;;;;;5.35;4.85;;;2.30;99.90;;;;;;4872340;29;20416;-79
2021/01/28 06:26:54;;;;;;;4.95;4.50;;;2.30;99.90;;;;;;4856782;29;20551;-82
2021/01/28 06:29:39;;;;;;;5.50;5.00;;;2.30;99.90;;;;;;4837884;29;20927;-78
2021/01/28 06:32:33;;;;;;;5.43;4.93;;;2.30;99.90;;;;;;4837097;29;20422;-78
2021/01/28 06:35:48;;;;;;;5.00;4.50;;;2.40;99.90;;;;;;4847992;29;20546;-79
2021/01/28 06:39:26;;;;;;;5.40;4.90;;;2.40;99.90;;;;;;4841419;29;20449;-82
2021/01/28 06:42:00;;;;;;;5.78;5.18;;;2.40;99.90;;;;;;4852602;29;20452;-79
2021/01/28 06:45:05;;;;;;;6.25;5.45;;;2.50;99.90;;;;;;4840538;29;20442;-78
2021/01/28 06:48:03;;;;;;;5.25;4.82;;;2.50;99.90;;;;;;4829768;29;20895;-81
2021/01/28 06:50:45;;;;;;;5.93;4.93;;;2.50;99.90;;;;;;4835794;29;20420;-78
2021/01/28 06:53:34;;;;;;;6.30;5.40;;;2.50;99.90;;;;;;4852001;29;20570;-77
2021/01/28 06:56:36;;;;;;;5.18;4.75;;;2.50;99.90;;;;;;4837232;29;20414;-79
2021/01/28 06:59:43;;;;;;;5.70;5.10;;;2.50;99.90;;;;;;4828803;29;20484;-78
2021/01/28 07:02:52;;;;;;;5.70;5.20;;;2.50;99.90;;;;;;4833492;29;20412;-77
2021/01/28 07:05:51;;;;;;;5.65;5.15;;;2.60;99.90;;;;;;4788925;29;20490;-79
2021/01/28 07:08:50;;;;;;;5.40;4.90;;;2.60;99.90;;;;;;4845359;29;20460;-80
2021/01/28 07:11:40;;;;;;;5.03;4.63;;;2.60;99.90;;;;;;4842867;29;20412;-79
2021/01/28 07:14:32;;;;;;;5.53;5.03;;;2.70;99.90;;;;;;4851496;29;20419;-78
2021/01/28 07:17:15;;;;;;;5.85;4.88;;;2.70;99.90;;;;;;4820324;29;20420;-78
2021/01/28 07:19:48;;;;;;;5.47;4.95;;;2.70;99.90;;;;;;4856794;29;20408;-78
2021/01/28 07:22:29;;;;;;;5.03;4.63;;;2.70;99.90;;;;;;4842046;29;20465;-78
2021/01/28 07:25:29;;;;;;;6.10;5.50;;;2.70;99.90;;;;;;4839380;29;20453;-78
2021/01/28 07:28:13;;;;;;;5.45;4.95;;;2.80;99.90;;;;;;4834771;29;20451;-78
2021/01/28 07:30:41;;;;;;;5.53;4.90;;;2.80;99.90;;;;;;4852167;29;20812;-78
2021/01/28 07:33:35;;;;;;;5.53;5.03;;;2.80;99.90;;;;;;4838637;29;20422;-78
2021/01/28 07:36:12;;;;;;;5.57;4.85;;;2.80;99.90;;;;;;4836126;29;20415;-78
2021/01/28 07:39:05;;;;;;;5.80;5.20;;;2.80;99.90;;;;;;4863215;29;20814;-78
2021/01/28 07:42:25;;;;;;;5.47;4.85;;;2.90;99.90;;;;;;4866984;29;20404;-78
2021/01/28 07:45:23;;;;;;;6.25;4.72;;;2.90;99.90;;;;;;4846583;29;20412;-78
2021/01/28 07:47:53;;;;;;;5.97;5.25;;;2.90;99.90;;;;;;4843821;29;20425;-78
2021/01/28 07:50:35;;;;;;;5.72;5.22;;;2.90;99.90;;;;;;4842292;29;20942;-78
2021/01/28 07:53:27;;;;;;;5.78;5.15;;;3.00;99.90;;;;;;4842506;29;20442;-78
2021/01/28 07:55:53;;;;;;;5.40;4.90;;;3.00;99.90;;;;;;4830097;29;20473;-77
2021/01/28 07:58:27;;;;;;;5.20;4.70;;;3.00;99.90;;;;;;4843940;29;20466;-78
2021/01/28 08:00:53;;;;;;;5.35;4.68;;;3.00;99.90;;;;;;4843022;29;20491;-77
2021/01/28 08:03:32;;;;;;;6.03;5.28;;;3.00;99.90;;;;;;4842216;29;20510;-78
2021/01/28 08:05:57;;;;;;;5.82;5.22;;;3.00;99.90;;;;;;4841668;29;20412;-83
2021/01/28 08:08:23;;;;;;;5.22;4.80;;;3.10;99.90;;;;;;4843374;29;20487;-81
2021/01/28 08:10:52;;;;;;;6.03;5.43;;;3.00;99.90;;;;;;4841769;29;20398;-81
2021/01/28 08:13:28;;;;;;;6.15;5.50;;;3.00;99.90;;;;;;4842996;29;20478;-80
2021/01/28 08:15:59;;;;;;;5.88;5.28;;;3.00;99.90;;;;;;4844005;29;20433;-82
2021/01/28 08:18:26;;;;;;;6.22;5.32;;;3.20;99.90;;;;;;4852454;29;20759;-81
2021/01/28 08:21:11;;;;;;;5.55;5.05;;;3.10;99.90;;;;;;4866347;29;20414;-82
2021/01/28 08:23:44;;;;;;;6.37;5.73;;;3.10;99.90;;;;;;4830325;29;20438;-82
2021/01/28 08:26:22;;;;;;;5.80;4.87;;;3.10;99.90;;;;;;4862871;29;20416;-80
2021/01/28 08:28:53;;;;;;;6.15;5.45;;;3.10;99.90;;;;;;4855796;29;20419;-83
2021/01/28 08:31:26;;;;;;;6.00;5.20;;;3.20;99.90;;;;;;4872006;29;20420;-79
2021/01/28 08:33:57;;;;;;;5.63;5.10;;;3.20;99.90;;;;;;4858640;29;20448;-81
2021/01/28 08:36:30;;;;;;;5.85;5.25;;;3.20;99.90;;;;;;4857584;29;20412;-79
2021/01/28 08:39:18;;;;;;;5.70;5.20;;;3.20;99.90;;;;;;4863440;29;20450;-80
2021/01/28 08:41:45;;;;;;;5.35;4.85;;;3.30;99.90;;;;;;4838770;29;20408;-77
2021/01/28 08:44:14;;;;;;;5.00;4.50;;;3.40;99.90;;;;;;4822071;29;20519;-80
2021/01/28 08:46:42;;;;;;;5.40;5.00;;;3.30;99.90;;;;;;4850816;29;20412;-79
2021/01/28 08:49:19;;;;;;;6.00;5.32;;;3.40;99.90;;;;;;4836059;29;20423;-78
2021/01/28 08:51:52;;;;;;;5.70;5.20;;;3.40;99.90;;;;;;4837113;29;20404;-80
2021/01/28 08:54:20;;;;;;;5.53;5.03;;;3.40;99.90;;;;;;4837997;29;20415;-79
2021/01/28 08:56:47;;;;;;;5.63;5.00;;;3.50;99.90;;;;;;4856260;29;20780;-80
2021/01/28 08:59:14;;;;;;;5.50;4.90;;;3.50;99.90;;;;;;4841236;29;20908;-80
2021/01/28 09:01:44;;;;;;;5.40;4.90;;;3.50;99.90;;;;;;4839370;29;20414;-79
2021/01/28 09:04:31;;;;;;;5.53;5.03;;;3.50;99.90;;;;;;4850478;29;20426;-79
2021/01/28 09:06:59;;;;;;;5.85;5.25;;;3.50;99.90;;;;;;4838844;29;20410;-79
2021/01/28 09:09:26;;;;;;;5.53;5.03;;;3.50;99.90;;;;;;4852277;29;20496;-80
2021/01/28 09:12:22;;;;;;;5.03;4.53;;;3.60;99.90;;;;;;4855425;29;20410;-80
2021/01/28 09:15:12;;;;;;;5.47;4.97;;;3.60;99.90;;;;;;4851840;29;20549;-80
2021/01/28 09:18:08;;;;;;;4.72;4.32;;;3.60;99.90;;;;;;4800787;29;20455;-80
2021/01/28 09:21:24;;;;;;;5.20;4.70;;;3.60;99.90;;;;;;4847146;29;20463;-79
2021/01/28 09:24:27;;;;;;;5.00;4.43;;;3.60;99.90;;;;;;4829258;29;20493;-80
2021/01/28 09:27:21;;;;;;;5.47;4.93;;;3.70;99.90;;;;;;4825109;29;20412;-80
2021/01/28 09:29:48;;;;;;;6.00;4.83;;;3.60;99.90;;;;;;4871160;29;20419;-80
2021/01/28 09:32:18;;;;;;;5.03;4.55;;;3.60;99.90;;;;;;4819763;29;20979;-78
2021/01/28 09:34:45;;;;;;;5.82;5.20;;;3.60;99.90;;;;;;4839362;29;21174;-80
2021/01/28 09:37:20;;;;;;;6.15;5.55;;;3.70;99.90;;;;;;4849842;29;20420;-80
2021/01/28 09:39:55;;;;;;;11.90;10.23;;;3.60;99.90;;;;;;4829235;29;20824;-80
2021/01/28 09:42:31;;;;;;;8.30;7.15;;;3.60;99.90;;;;;;4821997;29;20756;-81
2021/01/28 09:45:07;;;;;;;7.25;6.15;;;3.60;99.90;;;;;;4932278;24;20391;-80
2021/01/28 09:48:03;;;;;;;6.27;5.67;;;3.60;99.90;;;;;;4857586;29;20454;-80
2021/01/28 09:50:41;;;;;;;6.53;5.82;;;3.60;99.90;;;;;;4845629;29;20464;-80
2021/01/28 09:53:11;;;;;;;6.43;5.77;;;3.50;99.90;;;;;;4834951;29;20398;-79
2021/01/28 09:55:39;;;;;;;6.40;5.80;;;3.60;99.90;;;;;;4858210;29;20408;-79
2021/01/28 09:58:07;;;;;;;6.18;5.57;;;3.60;99.90;;;;;;4840758;29;20404;-80
2021/01/28 10:00:54;;;;;;;6.30;5.68;;;3.60;99.90;;;;;;4855411;29;20390;-80
2021/01/28 10:03:28;;;;;;;6.50;5.90;;;3.60;99.90;;;;;;4857626;29;20437;-80
2021/01/28 10:05:55;;;;;;;6.30;5.70;;;3.60;99.90;;;;;;4870806;29;20625;-79
2021/01/28 10:08:45;;;;;;;12.50;9.65;;;3.60;99.90;;;;;;4859565;29;20398;-80
2021/01/28 10:11:15;;;;;;;6.20;5.57;;;3.60;99.90;;;;;;4830176;29;20414;-80
2021/01/28 10:14:02;;;;;;;6.22;5.72;;;3.70;99.90;;;;;;4865665;29;20394;-81
2021/01/28 10:16:28;;;;;;;6.00;5.40;;;3.80;99.90;;;;;;4837578;29;20386;-80
2021/01/28 10:22:33;;;;;;;6.20;5.60;;;3.80;99.90;;;;;;4877938;29;20430;-80
2021/01/28 10:27:59;;;;;;;6.30;5.68;;;3.70;99.90;;;;;;5089286;23;20412;-79
2021/01/28 10:30:28;;;;;;;6.28;5.60;;;3.80;99.90;;;;;;4831937;29;20411;-80
2021/01/28 10:33:03;;;;;;;6.57;5.87;;;3.80;99.90;;;;;;4856792;29;20448;-79
2021/01/28 10:35:58;;;;;;;5.93;5.35;;;3.80;99.90;;;;;;4841136;29;20394;-79
2021/01/28 10:39:03;;;;;;;7.18;6.10;;;3.80;99.90;;;;;;4884548;29;20421;-78
2021/01/28 10:41:38;;;;;;;6.57;5.95;;;3.80;99.90;;;;;;4865910;29;20477;-78
2021/01/28 10:44:04;;;;;;;7.43;6.73;;;3.80;99.90;;;;;;4847103;29;20479;-79
2021/01/28 10:46:29;;;;;;;7.87;6.40;;;3.80;99.90;;;;;;4827341;29;20847;-79
2021/01/28 10:48:55;;;;;;;6.63;5.93;;;3.80;99.90;;;;;;4848962;29;20412;-79
2021/01/28 10:51:21;;;;;;;6.13;5.53;;;3.90;99.90;;;;;;4828815;29;20477;-80
2021/01/28 10:53:47;;;;;;;6.53;5.60;;;3.80;99.90;;;;;;4850471;29;20415;-79
2021/01/28 10:56:13;;;;;;;5.95;5.32;;;3.90;99.90;;;;;;4825320;29;20547;-79
2021/01/28 10:58:39;;;;;;;7.10;5.73;;;3.90;99.90;;;;;;4837590;29;20427;-79
2021/01/28 11:01:05;;;;;;;6.03;5.43;;;4.00;99.90;;;;;;4847677;29;20946;-79
2021/01/28 11:03:32;;;;;;;6.07;5.07;;;3.90;99.90;;;;;;4837550;29;20414;-80
2021/01/28 11:05:58;;;;;;;5.80;5.00;;;3.90;99.90;;;;;;4837302;29;20421;-77
2021/01/28 11:08:24;;;;;;;6.00;5.10;;;3.90;99.90;;;;;;4822464;29;20846;-77
2021/01/28 11:10:50;;;;;;;6.15;5.55;;;3.90;99.90;;;;;;4843783;29;20411;-79
2021/01/28 11:13:16;;;;;;;5.85;5.25;;;4.00;99.90;;;;;;4845537;29;20462;-79
2021/01/28 11:15:42;;;;;;;6.40;5.78;;;3.90;99.90;;;;;;4851018;29;20542;-79
2021/01/28 11:18:10;;;;;;;6.30;5.20;;;3.90;99.90;;;;;;4830504;29;20791;-78
2021/01/28 11:20:36;;;;;;;5.93;5.35;;;3.90;99.90;;;;;;4849513;29;20422;-80
2021/01/28 11:23:02;;;;;;;5.75;5.25;;;4.00;99.90;;;;;;4833492;29;20409;-80
2021/01/28 11:25:28;;;;;;;5.82;5.20;;;4.00;99.90;;;;;;4836827;29;20426;-79
2021/01/28 11:27:53;;;;;;;6.72;5.45;;;4.00;99.90;;;;;;4850687;29;20773;-79
2021/01/28 11:30:21;;;;;;;6.33;5.37;;;4.00;99.90;;;;;;4851436;29;20439;-79
2021/01/28 11:32:47;;;;;;;6.50;5.53;;;4.00;99.90;;;;;;4851917;29;20412;-79
2021/01/28 11:35:13;;;;;;;8.30;5.43;;;4.00;99.90;;;;;;4832508;29;20803;-79
2021/01/28 11:37:44;;;;;;;9.93;7.20;;;4.00;99.90;;;;;;4841401;29;20414;-79
2021/01/28 11:40:10;;;;;;;9.60;7.53;;;4.00;99.90;;;;;;4851460;29;20402;-78
2021/01/28 11:42:36;;;;;;;6.25;5.65;;;4.00;99.90;;;;;;4842564;29;20778;-78
2021/01/28 11:45:02;;;;;;;6.10;5.40;;;4.00;99.90;;;;;;4840874;29;20422;-78
2021/01/28 11:47:28;;;;;;;9.20;8.00;;;4.00;99.90;;;;;;4846226;29;20425;-79
2021/01/28 11:49:53;;;;;;;7.80;7.00;;;4.10;99.90;;;;;;4852783;29;20406;-78
2021/01/28 11:52:20;;;;;;;6.70;5.43;;;4.00;99.90;;;;;;4858831;29;20406;-80
2021/01/28 11:54:46;;;;;;;5.32;4.82;;;4.00;99.90;;;;;;4839211;29;20851;-78
2021/01/28 11:57:11;;;;;;;5.17;4.73;;;4.00;99.90;;;;;;4853101;29;20501;-78
2021/01/28 11:59:37;;;;;;;5.67;5.17;;;4.00;99.90;;;;;;4843852;29;21538;-78
2021/01/28 12:02:03;;;;;;;5.93;5.18;;;4.00;99.90;;;;;;4841867;29;21079;-79
2021/01/28 12:04:28;;;;;;;6.90;5.70;;;4.10;99.90;;;;;;4846101;29;20415;-79
2021/01/28 12:06:54;;;;;;;5.13;4.63;;;4.10;99.90;;;;;;4843559;29;20410;-79
2021/01/28 12:09:21;;;;;;;6.30;4.80;;;4.00;99.90;;;;;;4845774;29;20492;-80
2021/01/28 12:11:46;;;;;;;5.00;4.50;;;4.10;99.90;;;;;;4853105;29;20430;-81
2021/01/28 12:14:12;;;;;;;4.13;3.72;;;4.10;99.90;;;;;;4846558;29;20423;-80
2021/01/28 12:16:37;;;;;;;3.97;3.53;;;4.10;99.90;;;;;;4848153;29;20402;-80
2021/01/28 12:19:03;;;;;;;3.45;3.15;;;4.10;99.90;;;;;;4840191;29;20407;-80
2021/01/28 12:21:29;;;;;;;2.93;2.67;;;4.10;99.90;;;;;;4855535;29;20403;-81
2021/01/28 12:23:55;;;;;;;3.47;2.88;;;4.20;99.90;;;;;;4856679;29;20501;-81
2021/01/28 12:26:22;;;;;;;2.70;2.50;;;4.20;99.90;;;;;;4850849;29;20471;-81
2021/01/28 12:28:48;;;;;;;2.63;2.42;;;4.20;99.90;;;;;;4858273;29;20559;-81
2021/01/28 12:31:14;;;;;;;2.90;2.70;;;4.20;99.90;;;;;;4845608;29;20765;-80
2021/01/28 12:33:40;;;;;;;2.80;2.60;;;4.20;99.90;;;;;;4850975;29;20425;-80
2021/01/28 12:36:08;;;;;;;2.95;2.75;;;4.10;99.90;;;;;;4834655;29;20514;-81
2021/01/28 12:38:34;;;;;;;2.90;2.70;;;4.20;99.90;;;;;;4835046;29;21260;-81
2021/01/28 12:41:00;;;;;;;2.97;2.65;;;4.20;99.90;;;;;;4858403;29;20420;-80
2021/01/28 12:43:26;;;;;;;2.55;2.35;;;4.20;99.90;;;;;;4845459;29;20794;-80
2021/01/28 12:45:52;;;;;;;2.47;2.30;;;4.40;99.90;;;;;;4838765;29;20414;-80
2021/01/28 12:48:17;;;;;;;2.40;2.20;;;4.30;99.90;;;;;;4845154;29;20906;-81
2021/01/28 12:50:43;;;;;;;2.33;2.13;;;4.30;99.90;;;;;;4857037;29;20407;-81
2021/01/28 12:53:09;;;;;;;3.05;2.75;;;4.40;99.90;;;;;;4854140;29;20411;-81
2021/01/28 12:55:34;;;;;;;2.73;2.53;;;4.50;99.90;;;;;;4838965;29;20418;-80
2021/01/28 12:58:00;;;;;;;2.43;2.23;;;4.50;99.90;;;;;;4840777;29;20421;-80
2021/01/28 13:00:26;;;;;;;2.40;2.20;;;4.50;99.90;;;;;;4843398;29;20404;-81
2021/01/28 13:02:52;;;;;;;2.50;2.17;;;4.60;99.90;;;;;;4872485;29;20404;-80
2021/01/28 13:05:18;;;;;;;2.80;2.60;;;4.60;99.90;;;;;;4842849;29;20985;-80
2021/01/28 13:07:44;;;;;;;2.65;2.45;;;4.50;99.90;;;;;;4839272;29;20418;-81
2021/01/28 13:10:10;;;;;;;2.43;2.23;;;4.30;99.90;;;;;;4850983;29;20416;-81
2021/01/28 13:12:36;;;;;;;2.40;2.20;;;4.30;99.90;;;;;;4838467;29;20419;-81
2021/01/28 13:15:04;;;;;;;2.37;2.17;;;4.30;99.90;;;;;;4835879;29;20450;-80
2021/01/28 13:17:30;;;;;;;2.45;2.25;;;4.30;99.90;;;;;;4849340;29;20414;-80
2021/01/28 13:19:55;;;;;;;2.55;2.35;;;4.40;99.90;;;;;;4856040;29;20772;-80
2021/01/28 13:22:21;;;;;;;4.77;4.00;;;4.50;99.90;;;;;;4853519;29;20523;-80
2021/01/28 13:24:46;;;;;;;4.47;3.30;;;4.50;99.90;;;;;;4839729;29;20460;-80
2021/01/28 13:27:12;;;;;;;7.38;6.10;;;4.60;99.90;;;;;;4851279;29;20441;-79
2021/01/28 13:29:38;;;;;;;9.50;6.57;;;4.70;99.90;;;;;;4842807;29;20425;-80
2021/01/28 13:32:04;;;;;;;9.40;5.43;;;4.80;99.90;;;;;;4835527;29;20415;-80
2021/01/28 13:34:30;;;;;;;5.40;4.30;;;4.60;99.90;;;;;;4835502;29;20426;-80
2021/01/28 13:36:56;;;;;;;5.63;3.67;;;4.60;99.90;;;;;;4845551;29;20416;-80
2021/01/28 13:39:21;;;;;;;3.25;2.88;;;4.60;99.90;;;;;;4846065;29;20410;-80
2021/01/28 13:41:47;;;;;;;2.73;2.53;;;4.60;99.90;;;;;;4855572;29;20405;-79
2021/01/28 13:44:12;;;;;;;3.40;2.60;;;4.60;99.90;;;;;;4842677;29;20442;-80
2021/01/28 13:46:38;;;;;;;2.50;2.30;;;4.70;99.90;;;;;;4844820;29;20418;-80
2021/01/28 13:49:04;;;;;;;3.33;2.60;;;4.60;99.90;;;;;;4843922;29;20399;-80
2021/01/28 13:51:29;;;;;;;3.30;3.00;;;4.60;99.90;;;;;;4844631;29;20446;-79